Current Weather

Luton

Luton, United Kingdom (EGGW)

Report from: Friday, February 23, 2024 6:50 PM GMT
Current time: Friday, February 23, 2024 7:19 PM GMT

Nearby weather – Weather history – Daily summaries
Weather forecast

Temperature2.0°C (35.6°F)
Wind chill-0.2°C (31.7°F)
Dew point2.0°C (35.6°F)
Winds 4 kts (2.1 m/s, 4.6 mph) West-Southwest (240°)
Visibility6.2 mi. (10 km)
Clouds Few clouds 900 ft. (274 m)
Altimeter29.18 in.Hg (988 mB)
Relative humidity100 %
Density altitude-607 ft. (-185 m)
Remarks Fully automated report
Flight conditions Visual Meteorological Conditions
Raw dataEGGW 231850Z AUTO 24004KT 9999 FEW009/// //////TCU 02/02 Q0988
An error has occurred. This application may no longer respond until reloaded. Reload 🗙